createdAt,value
2017-09-29T00:01:42.438Z,9.27
2017-09-29T00:04:09.985Z,8.75
2017-09-29T00:06:38.247Z,7.60
2017-09-29T00:09:05.766Z,8.25
2017-09-29T00:11:33.280Z,8.45
2017-09-29T00:14:01.566Z,7.90
2017-09-29T00:16:29.260Z,8.45
2017-09-29T00:18:56.775Z,7.07
2017-09-29T00:21:25.087Z,8.32
2017-09-29T00:23:52.613Z,7.53
2017-09-29T00:26:20.869Z,7.55
2017-09-29T00:28:48.382Z,7.95
2017-09-29T00:31:15.878Z,8.20
2017-09-29T00:33:43.411Z,7.30
2017-09-29T00:36:10.914Z,9.52
2017-09-29T00:38:38.436Z,8.95
2017-09-29T00:41:05.955Z,8.35
2017-09-29T00:43:33.441Z,7.35
2017-09-29T00:46:00.970Z,7.45
2017-09-29T00:48:29.225Z,8.45
2017-09-29T00:50:56.742Z,8.35
2017-09-29T00:53:24.243Z,8.43
2017-09-29T00:55:52.542Z,8.23
2017-09-29T00:58:20.809Z,8.25
2017-09-29T01:00:49.098Z,7.32
2017-09-29T01:03:16.615Z,8.38
2017-09-29T01:05:44.136Z,8.13
2017-09-29T01:08:11.639Z,7.97
2017-09-29T01:10:39.161Z,8.50
2017-09-29T01:13:06.681Z,8.10
2017-09-29T01:15:34.201Z,7.37
2017-09-29T01:18:01.694Z,7.78
2017-09-29T01:20:29.975Z,7.70
2017-09-29T01:22:58.234Z,9.07
2017-09-29T01:25:25.786Z,6.97
2017-09-29T01:27:53.283Z,9.27
2017-09-29T01:30:20.798Z,7.37
2017-09-29T01:32:48.866Z,7.37
2017-09-29T01:35:16.365Z,7.43
2017-09-29T01:37:44.649Z,8.25
2017-09-29T01:40:12.161Z,7.85
2017-09-29T01:42:39.687Z,7.97
2017-09-29T01:45:07.186Z,8.52
2017-09-29T01:47:34.704Z,8.18
2017-09-29T01:50:02.197Z,6.65
2017-09-29T01:52:29.719Z,8.38
2017-09-29T01:54:57.217Z,8.45
2017-09-29T01:57:24.749Z,8.15
2017-09-29T01:59:52.260Z,7.60
2017-09-29T02:02:20.551Z,7.03
2017-09-29T02:04:48.822Z,6.75
2017-09-29T02:07:17.106Z,9.00
2017-09-29T02:09:45.371Z,7.45
2017-09-29T02:12:13.650Z,7.55
2017-09-29T02:14:41.925Z,8.18
2017-09-29T02:17:10.210Z,7.90
2017-09-29T02:19:38.479Z,7.85
2017-09-29T02:22:06.765Z,8.52
2017-09-29T02:24:35.032Z,7.18
2017-09-29T02:27:03.323Z,7.80
2017-09-29T02:29:30.835Z,7.78
2017-09-29T02:31:58.366Z,7.25
2017-09-29T02:34:25.887Z,7.10
2017-09-29T02:36:54.162Z,7.57
2017-09-29T02:39:22.451Z,7.30
2017-09-29T02:41:50.717Z,7.65
2017-09-29T02:44:19.002Z,7.50
2017-09-29T02:46:47.278Z,7.45
2017-09-29T02:49:15.566Z,8.60
2017-09-29T02:51:43.834Z,7.53
2017-09-29T02:54:12.122Z,8.10
2017-09-29T02:56:44.846Z,7.95
2017-09-29T02:59:13.723Z,7.00
2017-09-29T03:01:43.858Z,7.45
2017-09-29T03:04:12.706Z,7.75
2017-09-29T03:06:40.210Z,8.25
2017-09-29T03:09:07.742Z,8.63
2017-09-29T03:11:35.273Z,7.53
2017-09-29T03:14:03.556Z,7.93
2017-09-29T03:16:31.069Z,8.13
2017-09-29T03:18:58.596Z,7.35
2017-09-29T03:21:26.097Z,7.37
2017-09-29T03:23:53.614Z,7.90
2017-09-29T03:26:21.128Z,7.40
2017-09-29T03:28:48.658Z,7.90
2017-09-29T03:31:16.158Z,6.82
2017-09-29T03:33:44.426Z,6.78
2017-09-29T03:36:12.714Z,8.00
2017-09-29T03:38:40.299Z,7.05
2017-09-29T03:41:07.823Z,7.15
2017-09-29T03:43:36.095Z,7.30
2017-09-29T03:46:04.377Z,6.45
2017-09-29T03:48:32.637Z,7.47
2017-09-29T03:51:00.786Z,7.45
2017-09-29T03:53:29.490Z,8.00
2017-09-29T03:55:58.058Z,8.02
2017-09-29T03:58:26.150Z,7.05
2017-09-29T04:00:53.675Z,7.72
2017-09-29T04:03:21.165Z,7.40
2017-09-29T04:05:48.681Z,7.43
2017-09-29T04:08:16.186Z,8.13
2017-09-29T04:10:43.705Z,7.80
2017-09-29T04:13:11.221Z,7.37
2017-09-29T04:15:39.498Z,7.32
2017-09-29T04:18:07.771Z,7.80
2017-09-29T04:20:35.298Z,9.10
2017-09-29T04:23:02.802Z,7.45
2017-09-29T04:25:31.107Z,7.68
2017-09-29T04:27:58.603Z,7.97
2017-09-29T04:30:26.098Z,8.00
2017-09-29T04:32:54.380Z,7.30
2017-09-29T04:35:22.642Z,7.75
2017-09-29T04:37:50.927Z,7.70
2017-09-29T04:40:19.196Z,7.03
2017-09-29T04:42:47.788Z,7.47
2017-09-29T04:45:16.054Z,8.07
2017-09-29T04:47:44.331Z,7.68
2017-09-29T04:50:11.830Z,6.90
2017-09-29T04:52:39.358Z,8.32
2017-09-29T04:55:07.630Z,7.00
2017-09-29T04:57:35.914Z,7.57
2017-09-29T05:00:04.181Z,7.65
2017-09-29T05:02:32.471Z,8.15
2017-09-29T05:05:00.750Z,8.25
2017-09-29T05:07:29.041Z,7.72
2017-09-29T05:09:56.543Z,7.95
2017-09-29T05:12:24.070Z,8.82
2017-09-29T05:14:51.570Z,8.05
2017-09-29T05:17:19.087Z,8.13
2017-09-29T05:19:46.586Z,8.13
2017-09-29T05:22:14.884Z,7.80
2017-09-29T05:24:42.382Z,8.00
2017-09-29T05:27:10.715Z,7.90
2017-09-29T05:29:38.213Z,8.50
2017-09-29T05:32:06.490Z,8.20
2017-09-29T05:34:34.791Z,8.40
2017-09-29T05:37:02.302Z,8.43
2017-09-29T05:39:29.824Z,7.85
2017-09-29T05:41:57.323Z,8.73
2017-09-29T05:44:24.838Z,8.10
2017-09-29T05:46:52.339Z,8.38
2017-09-29T05:49:19.880Z,8.15
2017-09-29T05:51:47.386Z,9.05
2017-09-29T05:54:15.665Z,8.57
2017-09-29T05:56:43.161Z,9.60
2017-09-29T05:59:10.682Z,10.00
2017-09-29T06:01:38.960Z,11.35
2017-09-29T06:04:07.265Z,10.07
2017-09-29T06:06:34.774Z,8.65
2017-09-29T06:09:02.298Z,8.93
2017-09-29T06:11:29.818Z,8.82
2017-09-29T06:13:58.111Z,8.75
2017-09-29T06:16:25.619Z,9.32
2017-09-29T06:18:53.138Z,10.07
2017-09-29T06:21:20.658Z,8.88
2017-09-29T06:23:48.970Z,8.80
2017-09-29T06:26:16.486Z,8.32
2017-09-29T06:28:44.015Z,7.20
2017-09-29T06:31:11.546Z,8.27
2017-09-29T06:33:39.051Z,7.95
2017-09-29T06:36:06.574Z,8.75
2017-09-29T06:38:34.086Z,8.45
2017-09-29T06:41:01.611Z,8.10
2017-09-29T06:43:29.153Z,7.80
2017-09-29T06:45:56.703Z,8.10
2017-09-29T06:48:24.216Z,8.05
2017-09-29T06:50:51.738Z,7.50
2017-09-29T06:53:19.246Z,8.45
2017-09-29T06:55:47.527Z,7.55
2017-09-29T06:58:15.799Z,8.63
2017-09-29T07:00:43.320Z,7.70
2017-09-29T07:03:10.827Z,6.87
2017-09-29T07:05:39.127Z,8.57
2017-09-29T07:08:06.631Z,6.60
2017-09-29T07:10:34.157Z,6.20
2017-09-29T07:13:01.670Z,7.47
2017-09-29T07:15:29.195Z,6.70
2017-09-29T07:17:56.699Z,6.90
2017-09-29T07:20:24.978Z,8.25
2017-09-29T07:22:53.250Z,7.00
2017-09-29T07:25:23.681Z,7.60
2017-09-29T07:27:53.514Z,7.18
2017-09-29T07:30:21.448Z,7.45
2017-09-29T07:32:48.975Z,7.50
2017-09-29T07:35:16.467Z,6.03
2017-09-29T07:37:44.010Z,6.50
2017-09-29T07:40:11.514Z,6.25
2017-09-29T07:42:39.162Z,6.28
2017-09-29T07:45:07.433Z,6.97
2017-09-29T07:47:34.961Z,6.00
2017-09-29T07:50:02.513Z,5.90
2017-09-29T07:52:30.043Z,6.75
2017-09-29T07:54:57.534Z,6.20
2017-09-29T07:57:25.066Z,6.70
2017-09-29T07:59:53.327Z,6.53
2017-09-29T08:02:21.610Z,7.18
2017-09-29T08:04:49.885Z,6.95
2017-09-29T08:07:17.410Z,6.22
2017-09-29T08:09:45.252Z,7.53
2017-09-29T08:12:12.791Z,8.57
2017-09-29T08:14:40.302Z,7.97
2017-09-29T08:17:08.583Z,7.65
2017-09-29T08:19:36.854Z,7.93
2017-09-29T08:22:05.134Z,7.35
2017-09-29T08:24:33.401Z,8.30
2017-09-29T08:27:00.959Z,8.75
2017-09-29T08:29:28.469Z,6.75
2017-09-29T08:31:55.991Z,7.28
2017-09-29T08:34:24.290Z,8.25
2017-09-29T08:36:51.809Z,7.50
2017-09-29T08:39:19.321Z,7.65
2017-09-29T08:41:46.827Z,7.68
2017-09-29T08:44:14.372Z,7.03
2017-09-29T08:46:41.858Z,7.30
2017-09-29T08:49:10.162Z,7.55
2017-09-29T08:51:37.662Z,7.90
2017-09-29T08:54:05.174Z,7.50
2017-09-29T08:56:32.704Z,9.05
2017-09-29T08:59:00.239Z,10.52
2017-09-29T09:01:28.545Z,9.93
2017-09-29T09:03:56.066Z,10.93
2017-09-29T09:06:23.586Z,10.93
2017-09-29T09:08:51.115Z,10.57
2017-09-29T09:11:18.621Z,11.07
2017-09-29T09:13:46.143Z,12.35
2017-09-29T09:16:13.659Z,13.43
2017-09-29T09:18:41.191Z,13.00
2017-09-29T09:21:08.711Z,13.48
2017-09-29T09:23:36.238Z,15.52
2017-09-29T09:26:03.738Z,15.00
2017-09-29T09:28:32.015Z,14.73
2017-09-29T09:30:59.547Z,17.37
2017-09-29T09:33:27.050Z,15.80
2017-09-29T09:35:55.333Z,19.08
2017-09-29T09:38:22.858Z,19.55
2017-09-29T09:40:50.382Z,16.05
2017-09-29T09:43:17.892Z,16.42
2017-09-29T09:45:46.187Z,15.20
2017-09-29T09:48:14.470Z,14.77
2017-09-29T09:50:41.990Z,14.10
2017-09-29T09:53:09.513Z,14.77
2017-09-29T09:55:37.047Z,16.08
2017-09-29T09:58:04.561Z,18.25
2017-09-29T10:00:32.083Z,19.95
2017-09-29T10:02:59.601Z,18.98
2017-09-29T10:05:27.126Z,19.02
2017-09-29T10:07:54.639Z,19.05
2017-09-29T10:10:22.175Z,16.92
2017-09-29T10:12:49.686Z,17.15
2017-09-29T10:15:17.218Z,16.42
2017-09-29T10:17:44.718Z,16.30
2017-09-29T10:20:12.240Z,16.60
2017-09-29T10:22:39.766Z,14.93
2017-09-29T10:25:07.298Z,16.52
2017-09-29T10:27:34.811Z,15.73
2017-09-29T10:30:02.314Z,15.65
2017-09-29T10:32:29.830Z,15.52
2017-09-29T10:34:58.102Z,15.18
2017-09-29T10:37:25.951Z,15.95
2017-09-29T10:39:53.459Z,15.10
2017-09-29T10:42:21.741Z,17.37
2017-09-29T10:44:49.246Z,17.85
2017-09-29T10:47:16.771Z,16.48
2017-09-29T10:49:44.330Z,17.27
2017-09-29T10:52:11.854Z,16.67
2017-09-29T10:54:39.373Z,16.70
2017-09-29T10:57:06.901Z,14.95
2017-09-29T10:59:35.177Z,15.23
2017-09-29T11:02:03.470Z,16.23
2017-09-29T11:04:30.978Z,16.10
2017-09-29T11:06:58.515Z,16.00
2017-09-29T11:09:26.026Z,16.62
2017-09-29T11:11:54.330Z,17.80
2017-09-29T11:14:21.862Z,17.15
2017-09-29T11:16:50.150Z,17.48
2017-09-29T11:19:18.432Z,17.35
2017-09-29T11:21:45.994Z,15.93
2017-09-29T11:24:13.502Z,14.90
2017-09-29T11:26:41.008Z,14.02
2017-09-29T11:29:09.310Z,14.85
2017-09-29T11:31:36.832Z,14.02
2017-09-29T11:34:04.355Z,16.58
2017-09-29T11:36:31.890Z,15.48
2017-09-29T11:38:59.418Z,14.45
2017-09-29T11:41:27.705Z,15.90
2017-09-29T11:43:55.241Z,15.93
2017-09-29T11:46:22.787Z,17.37
2017-09-29T11:48:50.307Z,16.15
2017-09-29T11:51:17.822Z,15.57
2017-09-29T11:53:45.358Z,17.33
2017-09-29T11:56:12.874Z,18.33
2017-09-29T11:58:40.411Z,16.87
2017-09-29T12:01:08.694Z,16.37
2017-09-29T12:03:36.237Z,18.20
2017-09-29T12:06:03.743Z,19.02
2017-09-29T12:08:31.270Z,19.42
2017-09-29T12:10:58.780Z,18.30
2017-09-29T12:13:26.310Z,16.90
2017-09-29T12:15:53.835Z,17.95
2017-09-29T12:18:22.121Z,17.42
2017-09-29T12:20:50.395Z,17.45
2017-09-29T12:23:17.970Z,18.67
2017-09-29T12:25:45.473Z,18.42
2017-09-29T12:28:12.991Z,19.10
2017-09-29T12:30:41.250Z,20.10
2017-09-29T12:33:08.771Z,17.87
2017-09-29T12:35:36.304Z,18.80
2017-09-29T12:38:03.819Z,17.12
2017-09-29T12:40:32.115Z,16.65
2017-09-29T12:42:59.638Z,16.17
2017-09-29T12:45:27.158Z,17.60
2017-09-29T12:47:54.683Z,16.85
2017-09-29T12:50:22.962Z,15.88
2017-09-29T12:52:51.268Z,17.23
2017-09-29T12:55:18.826Z,16.65
2017-09-29T12:57:46.341Z,16.27
2017-09-29T13:00:13.888Z,17.90
2017-09-29T13:02:41.398Z,18.05
2017-09-29T13:05:08.918Z,16.58
2017-09-29T13:07:37.210Z,14.80
2017-09-29T13:10:05.515Z,14.13
2017-09-29T13:12:33.032Z,12.05
2017-09-29T13:15:00.597Z,14.13
2017-09-29T13:17:28.873Z,14.75
2017-09-29T13:19:57.172Z,15.95
2017-09-29T13:22:24.678Z,16.70
2017-09-29T13:24:52.186Z,16.17
2017-09-29T13:27:19.708Z,16.48
2017-09-29T13:29:47.251Z,14.68
2017-09-29T13:32:14.790Z,16.52
2017-09-29T13:34:42.306Z,14.63
2017-09-29T13:37:10.598Z,16.17
2017-09-29T13:39:38.861Z,15.02
2017-09-29T13:42:07.148Z,15.35
2017-09-29T13:44:35.448Z,13.70
2017-09-29T13:47:02.973Z,14.50
2017-09-29T13:49:31.258Z,14.00
2017-09-29T13:51:59.589Z,13.93
2017-09-29T13:54:27.123Z,13.85
2017-09-29T13:56:54.664Z,14.10
2017-09-29T13:59:22.939Z,14.15
2017-09-29T14:01:50.461Z,13.10
2017-09-29T14:04:17.954Z,12.13
2017-09-29T14:06:46.262Z,12.73
2017-09-29T14:09:13.762Z,13.20
2017-09-29T14:11:41.283Z,13.57
2017-09-29T14:14:08.789Z,14.60
2017-09-29T14:16:36.318Z,15.32
2017-09-29T14:19:03.822Z,14.23
2017-09-29T14:21:32.123Z,14.98
2017-09-29T14:23:59.643Z,14.30
2017-09-29T14:26:27.174Z,14.82
2017-09-29T14:28:54.678Z,14.87
2017-09-29T14:31:22.239Z,15.05
2017-09-29T14:33:50.532Z,14.95
2017-09-29T14:36:18.061Z,14.85
2017-09-29T14:38:45.570Z,16.27
2017-09-29T14:41:13.127Z,16.77
2017-09-29T14:43:40.641Z,14.00
2017-09-29T14:46:08.172Z,14.73
2017-09-29T14:48:35.670Z,15.20
2017-09-29T14:51:03.966Z,16.55
2017-09-29T14:53:31.467Z,15.75
2017-09-29T14:55:58.995Z,15.65
2017-09-29T14:58:26.498Z,16.27
2017-09-29T15:00:54.022Z,15.85
2017-09-29T15:03:21.528Z,16.20
2017-09-29T15:05:49.075Z,14.73
2017-09-29T15:08:16.591Z,15.95
2017-09-29T15:10:44.118Z,14.70
2017-09-29T15:13:12.394Z,15.13
2017-09-29T15:15:40.674Z,16.20
2017-09-29T15:18:08.964Z,17.08
2017-09-29T15:20:36.482Z,16.60
2017-09-29T15:23:04.002Z,17.37
2017-09-29T15:25:31.515Z,17.58
2017-09-29T15:27:59.038Z,16.33
2017-09-29T15:30:26.547Z,17.85
2017-09-29T15:32:54.857Z,17.37
2017-09-29T15:35:22.374Z,15.38
2017-09-29T15:37:50.659Z,17.65
2017-09-29T15:40:18.938Z,16.98
2017-09-29T15:42:47.234Z,15.32
2017-09-29T15:45:14.737Z,15.48
2017-09-29T15:47:42.261Z,14.90
2017-09-29T15:50:09.764Z,16.73
2017-09-29T15:52:37.296Z,14.70
2017-09-29T15:55:04.807Z,14.35
2017-09-29T15:57:33.326Z,16.02
2017-09-29T16:00:00.835Z,15.05
2017-09-29T16:02:30.787Z,16.35
2017-09-29T16:05:04.883Z,15.23
2017-09-29T16:07:32.407Z,20.37
2017-09-29T16:10:00.574Z,15.77
2017-09-29T16:12:28.101Z,16.20
2017-09-29T16:14:55.611Z,17.00
2017-09-29T16:17:23.138Z,16.17
2017-09-29T16:19:50.655Z,15.13
2017-09-29T16:22:18.935Z,17.58
2017-09-29T16:24:46.437Z,13.50
2017-09-29T16:27:13.956Z,14.13
2017-09-29T16:29:41.457Z,14.75
2017-09-29T16:32:09.761Z,14.82
2017-09-29T16:34:37.272Z,14.27
2017-09-29T16:37:04.819Z,14.90
2017-09-29T16:39:32.322Z,15.00
2017-09-29T16:41:59.846Z,14.38
2017-09-29T16:44:27.346Z,15.02
2017-09-29T16:46:54.866Z,15.68
2017-09-29T16:49:22.372Z,16.45
2017-09-29T16:51:49.903Z,16.20
2017-09-29T16:54:17.408Z,18.08
2017-09-29T16:56:45.768Z,14.43
2017-09-29T16:59:14.055Z,15.13
2017-09-29T17:01:42.342Z,13.62
2017-09-29T17:04:09.854Z,14.90
2017-09-29T17:06:37.383Z,15.00
2017-09-29T17:09:04.928Z,14.45
2017-09-29T17:11:32.470Z,14.55
2017-09-29T17:13:59.989Z,14.80
2017-09-29T17:16:27.526Z,15.00
2017-09-29T17:18:55.044Z,17.00
2017-09-29T17:21:23.330Z,16.20
2017-09-29T17:23:50.864Z,15.35
2017-09-29T17:26:18.388Z,16.83
2017-09-29T17:28:45.899Z,17.30
2017-09-29T17:31:14.168Z,16.90
2017-09-29T17:33:42.459Z,17.33
2017-09-29T17:36:10.726Z,17.08
2017-09-29T17:38:39.006Z,16.67
2017-09-29T17:41:07.281Z,15.98
2017-09-29T17:43:35.558Z,16.25
2017-09-29T17:46:03.829Z,16.00
2017-09-29T17:48:32.122Z,18.37
2017-09-29T17:50:59.634Z,16.20
2017-09-29T17:53:27.162Z,16.40
2017-09-29T17:55:54.670Z,16.75
2017-09-29T17:58:22.190Z,15.85
2017-09-29T18:00:49.686Z,17.77
2017-09-29T18:03:17.206Z,18.23
2017-09-29T18:05:44.801Z,19.65
2017-09-29T18:08:12.330Z,15.55
2017-09-29T18:10:39.838Z,17.75
2017-09-29T18:13:08.121Z,18.25
2017-09-29T18:15:36.406Z,16.00
2017-09-29T18:18:04.711Z,18.45
2017-09-29T18:20:32.232Z,30.42
2017-09-29T18:23:01.529Z,17.87
2017-09-29T18:25:29.810Z,21.58
2017-09-29T18:27:58.102Z,19.10
2017-09-29T18:30:25.623Z,19.08
2017-09-29T18:32:53.156Z,19.50
2017-09-29T18:35:20.665Z,19.30
2017-09-29T18:37:48.953Z,20.75
2017-09-29T18:40:20.954Z,19.37
2017-09-29T18:42:49.051Z,19.45
2017-09-29T18:45:16.570Z,20.05
2017-09-29T18:47:44.096Z,26.65
2017-09-29T18:50:12.359Z,21.62
2017-09-29T18:52:39.883Z,21.48
2017-09-29T18:55:07.391Z,18.42
2017-09-29T18:57:34.921Z,20.02
2017-09-29T19:00:03.407Z,21.00
2017-09-29T19:02:30.951Z,21.45
2017-09-29T19:04:58.463Z,20.85
2017-09-29T19:07:26.759Z,19.23
2017-09-29T19:09:54.263Z,20.98
2017-09-29T19:12:21.779Z,20.42
2017-09-29T19:14:49.299Z,20.10
2017-09-29T19:17:17.581Z,22.80
2017-09-29T19:19:45.856Z,20.02
2017-09-29T19:22:13.413Z,22.17
2017-09-29T19:24:40.938Z,20.95
2017-09-29T19:27:08.450Z,21.55
2017-09-29T19:29:35.982Z,20.08
2017-09-29T19:32:03.501Z,22.15
2017-09-29T19:34:31.045Z,21.58
2017-09-29T19:36:58.569Z,22.58
2017-09-29T19:39:26.932Z,21.12
2017-09-29T19:41:54.470Z,20.15
2017-09-29T19:44:22.833Z,21.20
2017-09-29T19:46:50.334Z,20.25
2017-09-29T19:49:17.893Z,21.67
2017-09-29T19:51:45.510Z,20.75
2017-09-29T19:54:13.039Z,21.70
2017-09-29T19:56:41.331Z,27.25
2017-09-29T19:59:08.902Z,24.23
2017-09-29T20:01:36.442Z,22.58
2017-09-29T20:04:04.807Z,23.55
2017-09-29T20:06:33.085Z,22.75
2017-09-29T20:09:01.370Z,27.23
2017-09-29T20:11:29.646Z,25.65
2017-09-29T20:13:57.937Z,30.12
2017-09-29T20:16:25.440Z,25.65
2017-09-29T20:18:53.745Z,23.65
2017-09-29T20:21:21.275Z,22.95
2017-09-29T20:23:48.813Z,23.02
2017-09-29T20:26:16.333Z,23.35
2017-09-29T20:28:44.626Z,25.92
2017-09-29T20:31:12.135Z,26.35
2017-09-29T20:33:39.662Z,23.70
2017-09-29T20:36:07.162Z,22.85
2017-09-29T20:38:34.692Z,23.30
2017-09-29T20:41:02.197Z,31.27
2017-09-29T20:43:30.498Z,36.58
2017-09-29T20:45:58.011Z,37.42
2017-09-29T20:48:25.534Z,28.95
2017-09-29T20:50:53.050Z,25.52
2017-09-29T20:53:21.338Z,26.00
2017-09-29T20:55:48.851Z,22.85
2017-09-29T20:58:16.393Z,22.42
2017-09-29T21:00:43.889Z,24.17
2017-09-29T21:03:11.416Z,34.00
2017-09-29T21:05:38.924Z,26.55
2017-09-29T21:08:07.218Z,24.65
2017-09-29T21:10:35.491Z,21.90
2017-09-29T21:13:03.786Z,23.10
2017-09-29T21:15:31.313Z,35.38
2017-09-29T21:17:58.841Z,27.55
2017-09-29T21:20:26.345Z,25.42
2017-09-29T21:22:53.890Z,38.67
2017-09-29T21:25:22.154Z,26.50
2017-09-29T21:27:49.673Z,38.97
2017-09-29T21:30:17.170Z,27.25
2017-09-29T21:32:44.692Z,23.52
2017-09-29T21:35:12.199Z,23.25
2017-09-29T21:37:40.462Z,19.83
2017-09-29T21:40:07.987Z,21.45
2017-09-29T21:42:35.497Z,22.23
2017-09-29T21:45:03.051Z,24.25
2017-09-29T21:47:30.558Z,25.00
2017-09-29T21:49:58.085Z,27.00
2017-09-29T21:52:25.618Z,30.40
2017-09-29T21:54:53.142Z,25.17
2017-09-29T21:57:20.651Z,24.48
2017-09-29T21:59:48.178Z,29.20
2017-09-29T22:02:15.679Z,24.80
2017-09-29T22:04:43.200Z,25.98
2017-09-29T22:07:10.711Z,23.08
2017-09-29T22:09:38.246Z,34.33
2017-09-29T22:12:06.520Z,32.92
2017-09-29T22:14:34.815Z,25.80
2017-09-29T22:17:03.090Z,32.03
2017-09-29T22:19:31.387Z,24.67
2017-09-29T22:21:58.908Z,24.15
2017-09-29T22:24:27.205Z,21.50
2017-09-29T22:26:54.715Z,22.13
2017-09-29T22:29:22.233Z,32.65
2017-09-29T22:31:49.742Z,29.67
2017-09-29T22:34:17.274Z,40.03
2017-09-29T22:36:44.781Z,23.42
2017-09-29T22:39:13.074Z,23.98
2017-09-29T22:41:40.618Z,24.87
2017-09-29T22:44:08.146Z,22.33
2017-09-29T22:46:35.658Z,21.85
2017-09-29T22:49:03.235Z,22.35
2017-09-29T22:51:30.730Z,22.92
2017-09-29T22:53:59.018Z,23.58
2017-09-29T22:56:26.517Z,28.15
2017-09-29T22:58:54.043Z,22.73
2017-09-29T23:01:21.554Z,20.73
2017-09-29T23:03:49.131Z,21.55
2017-09-29T23:06:16.642Z,28.15
2017-09-29T23:08:44.933Z,20.88
2017-09-29T23:11:12.433Z,22.83
2017-09-29T23:13:40.723Z,21.67
2017-09-29T23:16:08.270Z,19.37
2017-09-29T23:18:35.807Z,21.98
2017-09-29T23:21:03.322Z,21.00
2017-09-29T23:23:31.605Z,22.02
2017-09-29T23:25:59.889Z,21.77
2017-09-29T23:28:27.419Z,20.30
2017-09-29T23:30:54.930Z,20.83
2017-09-29T23:33:23.218Z,20.75
2017-09-29T23:35:50.731Z,19.25
2017-09-29T23:38:18.262Z,17.90
2017-09-29T23:40:45.761Z,19.15
2017-09-29T23:43:13.328Z,20.20
2017-09-29T23:45:41.639Z,19.12
2017-09-29T23:48:09.144Z,18.90
2017-09-29T23:50:36.718Z,19.15
2017-09-29T23:53:04.225Z,19.27
2017-09-29T23:55:31.766Z,20.35
2017-09-29T23:58:00.048Z,18.37
